Time;durP1;ratioP1;P1;durP2;ratioP2;P2;SDS_P1;SDS_P2;PMS_P1;PMS_P2;Temp;Humidity;BMP_temperature;BMP_pressure;BME280_temperature;BME280_humidity;BME280_pressure;Samples;Min_cycle;Max_cycle;Signal;HPM_P1;HPM_P2
2022/07/09 00:02:03;;;;;;;;;;;;;;;;;;5056878;28;19912;-69
2022/07/09 00:04:29;;;;;;;;;;;;;;;;;;5057410;28;20335;-69
2022/07/09 00:06:55;;;;;;;;;;;;;;;;;;5057086;28;19909;-68
2022/07/09 00:09:21;;;;;;;;;;;;;;;;;;5056773;28;20000;-68
2022/07/09 00:11:47;;;;;;;;;;;;;;;;;;5057277;28;19931;-68
2022/07/09 00:14:13;;;;;;;;;;;;;;;;;;5056630;28;19909;-68
2022/07/09 00:16:39;;;;;;;;;;;;;;;;;;5056654;28;19919;-69
2022/07/09 00:19:05;;;;;;;;;;;;;;;;;;5056579;28;20349;-68
2022/07/09 00:21:31;;;;;;;;;;;;;;;;;;5056488;28;19912;-67
2022/07/09 00:23:57;;;;;;;;;;;;;;;;;;5056744;28;20281;-68
2022/07/09 00:26:22;;;;;;;;;;;;;;;;;;5056418;28;19908;-68
2022/07/09 00:28:48;;;;;;;;;;;;;;;;;;5056359;28;19956;-68
2022/07/09 00:31:14;;;;;;;;;;;;;;;;;;5056107;28;19927;-67
2022/07/09 00:33:41;;;;;;;;;;;;;;;;;;5056296;28;19909;-68
2022/07/09 00:36:07;;;;;;;;;;;;;;;;;;5054801;28;20284;-68
2022/07/09 00:38:33;;;;;;;;;;;;;;;;;;5056203;28;19992;-69
2022/07/09 00:40:59;;;;;;;;;;;;;;;;;;5056393;28;19913;-68
2022/07/09 00:43:25;;;;;;;;;;;;;;;;;;5056126;28;20288;-69
2022/07/09 00:45:51;;;;;;;;;;;;;;;;;;5057172;28;20420;-68
2022/07/09 00:48:17;;;;;;;;;;;;;;;;;;5056082;28;19908;-68
2022/07/09 00:50:43;;;;;;;;;;;;;;;;;;5056294;28;19916;-68
2022/07/09 00:53:08;;;;;;;;;;;;;;;;;;5055979;28;19913;-68
2022/07/09 00:55:35;;;;;;;;;;;;;;;;;;5056199;28;19908;-68
2022/07/09 00:58:01;;;;;;;;;;;;;;;;;;5056149;28;19916;-68
2022/07/09 01:00:27;;;;;;;;;;;;;;;;;;5055761;28;19934;-68
2022/07/09 01:02:53;;;;;;;;;;;;;;;;;;5056345;28;20304;-69
2022/07/09 01:05:19;;;;;;;;;;;;;;;;;;5055693;28;19952;-68
2022/07/09 01:07:45;;;;;;;;;;;;;;;;;;5054758;28;19916;-68
2022/07/09 01:10:11;;;;;;;;;;;;;;;;;;5055677;28;19915;-69
2022/07/09 01:12:37;;;;;;;;;;;;;;;;;;5055596;28;19909;-69
2022/07/09 01:15:03;;;;;;;;;;;;;;;;;;5056123;28;19955;-69
2022/07/09 01:17:29;;;;;;;;;;;;;;;;;;5055765;28;19913;-69
2022/07/09 01:19:55;;;;;;;;;;;;;;;;;;5055422;28;20293;-68
2022/07/09 01:22:21;;;;;;;;;;;;;;;;;;5055372;28;19917;-68
2022/07/09 01:24:47;;;;;;;;;;;;;;;;;;5055927;28;19909;-69
2022/07/09 01:27:12;;;;;;;;;;;;;;;;;;5055494;28;19915;-68
2022/07/09 01:29:38;;;;;;;;;;;;;;;;;;5055071;28;20324;-69
2022/07/09 01:32:04;;;;;;;;;;;;;;;;;;5055531;28;19916;-69
2022/07/09 01:34:30;;;;;;;;;;;;;;;;;;5055138;28;20025;-68
2022/07/09 01:36:56;;;;;;;;;;;;;;;;;;5055101;28;19909;-69
2022/07/09 01:39:22;;;;;;;;;;;;;;;;;;5055344;28;19908;-68
2022/07/09 01:41:48;;;;;;;;;;;;;;;;;;5054959;28;19917;-69
2022/07/09 01:44:14;;;;;;;;;;;;;;;;;;5055510;28;20273;-68
2022/07/09 01:46:39;;;;;;;;;;;;;;;;;;5055744;28;19951;-69
2022/07/09 01:49:05;;;;;;;;;;;;;;;;;;5055436;28;19913;-67
2022/07/09 01:51:32;;;;;;;;;;;;;;;;;;5054811;28;19936;-68
2022/07/09 01:53:58;;;;;;;;;;;;;;;;;;5054846;28;19908;-68
2022/07/09 01:56:24;;;;;;;;;;;;;;;;;;5055014;28;20042;-68
2022/07/09 01:58:50;;;;;;;;;;;;;;;;;;5054951;28;19909;-68
2022/07/09 02:01:16;;;;;;;;;;;;;;;;;;5054569;28;20008;-70
2022/07/09 02:03:42;;;;;;;;;;;;;;;;;;5055147;28;19913;-67
2022/07/09 02:06:08;;;;;;;;;;;;;;;;;;5052933;28;20403;-68
2022/07/09 02:08:34;;;;;;;;;;;;;;;;;;5055046;28;20003;-68
2022/07/09 02:11:00;;;;;;;;;;;;;;;;;;5054489;28;20369;-68
2022/07/09 02:13:26;;;;;;;;;;;;;;;;;;5054473;28;19908;-69
2022/07/09 02:15:52;;;;;;;;;;;;;;;;;;5054805;28;20268;-68
2022/07/09 02:18:18;;;;;;;;;;;;;;;;;;5053963;28;19951;-68
2022/07/09 02:20:44;;;;;;;;;;;;;;;;;;5054551;28;19912;-69
2022/07/09 02:23:10;;;;;;;;;;;;;;;;;;5054524;28;19935;-69
2022/07/09 02:25:36;;;;;;;;;;;;;;;;;;5054213;28;19913;-68
2022/07/09 02:28:02;;;;;;;;;;;;;;;;;;5054382;28;19916;-67
2022/07/09 02:30:28;;;;;;;;;;;;;;;;;;5053951;28;19920;-69
2022/07/09 02:32:53;;;;;;;;;;;;;;;;;;5052711;28;20003;-68
2022/07/09 02:35:19;;;;;;;;;;;;;;;;;;5054078;28;19909;-68
2022/07/09 02:37:45;;;;;;;;;;;;;;;;;;5054343;28;20296;-69
2022/07/09 02:40:14;;;;;;;;;;;;;;;;;;5053959;28;19909;-68
2022/07/09 02:42:41;;;;;;;;;;;;;;;;;;5052506;28;19920;-68
2022/07/09 02:45:07;;;;;;;;;;;;;;;;;;5054587;28;19956;-69
2022/07/09 02:47:33;;;;;;;;;;;;;;;;;;5054381;28;19920;-68
2022/07/09 02:49:58;;;;;;;;;;;;;;;;;;5054106;28;20346;-68
2022/07/09 02:52:24;;;;;;;;;;;;;;;;;;5053753;28;19909;-68
2022/07/09 02:54:51;;;;;;;;;;;;;;;;;;5053804;28;19967;-68
2022/07/09 02:57:17;;;;;;;;;;;;;;;;;;5053714;28;19909;-69
2022/07/09 02:59:43;;;;;;;;;;;;;;;;;;5053716;28;19970;-68
2022/07/09 03:02:09;;;;;;;;;;;;;;;;;;5053618;28;19917;-68
2022/07/09 03:04:34;;;;;;;;;;;;;;;;;;5054221;28;20238;-68
2022/07/09 03:07:00;;;;;;;;;;;;;;;;;;5053607;28;19909;-68
2022/07/09 03:09:26;;;;;;;;;;;;;;;;;;5053559;28;19977;-69
2022/07/09 03:11:52;;;;;;;;;;;;;;;;;;5052281;28;19999;-68
2022/07/09 03:14:18;;;;;;;;;;;;;;;;;;5053777;28;19952;-69
2022/07/09 03:16:44;;;;;;;;;;;;;;;;;;5053520;28;20355;-67
2022/07/09 03:19:10;;;;;;;;;;;;;;;;;;5053501;28;19923;-68
2022/07/09 03:21:36;;;;;;;;;;;;;;;;;;5053659;28;20007;-69
2022/07/09 03:24:02;;;;;;;;;;;;;;;;;;5053490;28;19909;-69
2022/07/09 03:26:28;;;;;;;;;;;;;;;;;;5053683;28;19969;-68
2022/07/09 03:28:54;;;;;;;;;;;;;;;;;;5053247;28;19920;-68
2022/07/09 03:31:20;;;;;;;;;;;;;;;;;;5057183;28;19936;-69
2022/07/09 03:33:46;;;;;;;;;;;;;;;;;;5057415;28;19931;-68
2022/07/09 03:36:12;;;;;;;;;;;;;;;;;;5057388;28;19909;-68
2022/07/09 03:38:38;;;;;;;;;;;;;;;;;;5057673;28;20019;-69
2022/07/09 03:41:04;;;;;;;;;;;;;;;;;;5057186;28;19968;-68
2022/07/09 03:43:30;;;;;;;;;;;;;;;;;;5057813;28;20004;-68
2022/07/09 03:45:56;;;;;;;;;;;;;;;;;;5057255;28;19915;-68
2022/07/09 03:48:21;;;;;;;;;;;;;;;;;;5057990;28;19948;-67
2022/07/09 03:50:47;;;;;;;;;;;;;;;;;;5057091;28;19931;-69
2022/07/09 03:53:13;;;;;;;;;;;;;;;;;;5057055;28;19995;-68
2022/07/09 03:55:39;;;;;;;;;;;;;;;;;;5057082;28;19916;-68
2022/07/09 03:58:05;;;;;;;;;;;;;;;;;;5057042;28;20326;-67
2022/07/09 04:00:31;;;;;;;;;;;;;;;;;;5056887;28;19909;-68
2022/07/09 04:02:57;;;;;;;;;;;;;;;;;;5057235;28;19909;-68
2022/07/09 04:05:23;;;;;;;;;;;;;;;;;;5056826;28;19910;-69
2022/07/09 04:07:49;;;;;;;;;;;;;;;;;;5057398;28;20398;-68
2022/07/09 04:10:15;;;;;;;;;;;;;;;;;;5056738;28;20000;-68
2022/07/09 04:12:41;;;;;;;;;;;;;;;;;;5056980;28;19916;-69
2022/07/09 04:15:06;;;;;;;;;;;;;;;;;;5056957;28;19909;-68
2022/07/09 04:17:34;;;;;;;;;;;;;;;;;;5056621;28;19913;-68
2022/07/09 04:20:00;;;;;;;;;;;;;;;;;;5057183;28;19995;-69
2022/07/09 04:22:26;;;;;;;;;;;;;;;;;;5055046;28;19963;-68
2022/07/09 04:24:51;;;;;;;;;;;;;;;;;;5057094;28;19909;-68
2022/07/09 04:27:17;;;;;;;;;;;;;;;;;;5056672;28;19909;-69
2022/07/09 04:29:43;;;;;;;;;;;;;;;;;;5056739;28;20362;-68
2022/07/09 04:32:09;;;;;;;;;;;;;;;;;;5056717;28;19913;-68
2022/07/09 04:34:35;;;;;;;;;;;;;;;;;;5056338;28;19958;-68
2022/07/09 04:37:01;;;;;;;;;;;;;;;;;;5056528;28;19958;-67
2022/07/09 04:39:27;;;;;;;;;;;;;;;;;;5056227;28;19909;-68
2022/07/09 04:41:53;;;;;;;;;;;;;;;;;;5055869;28;19913;-68
2022/07/09 04:44:19;;;;;;;;;;;;;;;;;;5056386;28;19912;-67
2022/07/09 04:46:45;;;;;;;;;;;;;;;;;;5056640;28;20391;-69
2022/07/09 04:49:11;;;;;;;;;;;;;;;;;;5056060;28;19913;-69
2022/07/09 04:51:37;;;;;;;;;;;;;;;;;;5056281;28;19915;-68
2022/07/09 04:54:03;;;;;;;;;;;;;;;;;;5055924;28;19908;-68
2022/07/09 04:56:28;;;;;;;;;;;;;;;;;;5055955;28;19959;-67
2022/07/09 04:58:55;;;;;;;;;;;;;;;;;;5056401;28;19985;-68
2022/07/09 05:01:21;;;;;;;;;;;;;;;;;;5054432;28;19916;-68
2022/07/09 05:03:47;;;;;;;;;;;;;;;;;;5056057;28;19916;-67
2022/07/09 05:06:13;;;;;;;;;;;;;;;;;;5055994;28;19954;-68
2022/07/09 05:08:39;;;;;;;;;;;;;;;;;;5055683;28;19951;-68
2022/07/09 05:11:05;;;;;;;;;;;;;;;;;;5056240;28;19916;-68
2022/07/09 05:13:31;;;;;;;;;;;;;;;;;;5055883;28;19909;-69
2022/07/09 05:15:57;;;;;;;;;;;;;;;;;;5055544;28;20325;-68
2022/07/09 05:18:23;;;;;;;;;;;;;;;;;;5055498;28;19924;-69
2022/07/09 05:20:49;;;;;;;;;;;;;;;;;;5055690;28;19920;-68
2022/07/09 05:23:15;;;;;;;;;;;;;;;;;;5055402;28;19909;-67
2022/07/09 05:25:41;;;;;;;;;;;;;;;;;;5055683;28;19909;-68
2022/07/09 05:28:06;;;;;;;;;;;;;;;;;;5055572;28;19939;-67
2022/07/09 05:30:36;;;;;;;;;;;;;;;;;;5055395;28;19921;-67
2022/07/09 05:33:02;;;;;;;;;;;;;;;;;;5055271;28;19958;-68
2022/07/09 05:35:28;;;;;;;;;;;;;;;;;;5055145;28;20385;-67
2022/07/09 05:37:54;;;;;;;;;;;;;;;;;;5055139;28;19916;-69
2022/07/09 05:40:20;;;;;;;;;;;;;;;;;;5055077;28;20356;-69
2022/07/09 05:42:46;;;;;;;;;;;;;;;;;;5054976;28;20059;-69
2022/07/09 05:45:12;;;;;;;;;;;;;;;;;;5055245;28;19959;-69
2022/07/09 05:47:38;;;;;;;;;;;;;;;;;;5055523;28;20423;-68
2022/07/09 05:50:04;;;;;;;;;;;;;;;;;;5055158;28;19908;-68
2022/07/09 05:52:30;;;;;;;;;;;;;;;;;;5054162;28;19915;-68
2022/07/09 05:54:56;;;;;;;;;;;;;;;;;;5054836;28;20288;-69
2022/07/09 05:57:22;;;;;;;;;;;;;;;;;;5055313;28;20317;-68
2022/07/09 05:59:48;;;;;;;;;;;;;;;;;;5054683;28;19915;-68
2022/07/09 06:02:14;;;;;;;;;;;;;;;;;;5055175;28;19913;-69
2022/07/09 06:04:40;;;;;;;;;;;;;;;;;;5054636;28;20012;-68
2022/07/09 06:07:06;;;;;;;;;;;;;;;;;;5054871;28;19971;-68
2022/07/09 06:09:31;;;;;;;;;;;;;;;;;;5054789;28;19909;-67
2022/07/09 06:11:58;;;;;;;;;;;;;;;;;;5053212;28;19909;-68
2022/07/09 06:14:24;;;;;;;;;;;;;;;;;;5054743;28;19909;-69
2022/07/09 06:16:49;;;;;;;;;;;;;;;;;;5054685;28;19962;-67
2022/07/09 06:19:16;;;;;;;;;;;;;;;;;;5054375;28;20007;-68
2022/07/09 06:21:42;;;;;;;;;;;;;;;;;;5054859;28;19912;-68
2022/07/09 06:24:08;;;;;;;;;;;;;;;;;;5054245;28;19909;-69
2022/07/09 06:26:34;;;;;;;;;;;;;;;;;;5054222;28;20284;-68
2022/07/09 06:29:00;;;;;;;;;;;;;;;;;;5054363;28;19996;-68
2022/07/09 06:31:26;;;;;;;;;;;;;;;;;;5053723;28;19921;-68
2022/07/09 06:33:54;;;;;;;;;;;;;;;;;;5053631;28;20376;-67
2022/07/09 06:36:19;;;;;;;;;;;;;;;;;;5054333;28;19916;-69
2022/07/09 06:41:30;;;;;;;;;;;;;;;;;;5053701;28;19919;-68
2022/07/09 06:43:56;;;;;;;;;;;;;;;;;;5053952;28;19909;-69
2022/07/09 06:46:22;;;;;;;;;;;;;;;;;;5054439;28;19962;-68
2022/07/09 06:48:48;;;;;;;;;;;;;;;;;;5054674;28;19955;-69
2022/07/09 06:51:14;;;;;;;;;;;;;;;;;;5053849;28;19909;-69
2022/07/09 06:53:39;;;;;;;;;;;;;;;;;;5054352;28;19952;-69
2022/07/09 06:56:05;;;;;;;;;;;;;;;;;;5053756;28;19944;-69
2022/07/09 06:58:31;;;;;;;;;;;;;;;;;;5054306;28;20402;-69
2022/07/09 07:00:57;;;;;;;;;;;;;;;;;;5053913;28;19919;-68
2022/07/09 07:03:23;;;;;;;;;;;;;;;;;;5053646;28;20262;-69
2022/07/09 07:05:49;;;;;;;;;;;;;;;;;;5053680;28;19920;-68
2022/07/09 07:08:15;;;;;;;;;;;;;;;;;;5053646;28;19967;-69
2022/07/09 07:10:41;;;;;;;;;;;;;;;;;;5053628;28;19915;-68
2022/07/09 07:13:06;;;;;;;;;;;;;;;;;;5053859;28;19909;-69
2022/07/09 07:15:32;;;;;;;;;;;;;;;;;;5053548;28;20387;-69
2022/07/09 07:17:58;;;;;;;;;;;;;;;;;;5053522;28;19919;-69
2022/07/09 07:20:25;;;;;;;;;;;;;;;;;;5053484;28;19909;-68
2022/07/09 07:22:50;;;;;;;;;;;;;;;;;;5053717;28;20328;-69
2022/07/09 07:25:16;;;;;;;;;;;;;;;;;;5053719;28;19915;-70
2022/07/09 07:27:42;;;;;;;;;;;;;;;;;;5053360;28;19952;-69
2022/07/09 07:30:08;;;;;;;;;;;;;;;;;;5058694;28;20003;-67
2022/07/09 07:32:34;;;;;;;;;;;;;;;;;;5073760;28;19908;-69
2022/07/09 07:35:02;;;;;;;;;;;;;;;;;;5073268;28;20308;-68
2022/07/09 07:37:28;;;;;;;;;;;;;;;;;;5073245;28;20007;-68
2022/07/09 07:39:54;;;;;;;;;;;;;;;;;;5073915;28;20394;-68
2022/07/09 07:42:20;;;;;;;;;;;;;;;;;;5073268;28;19962;-69
2022/07/09 07:44:46;;;;;;;;;;;;;;;;;;5073313;28;19909;-69
2022/07/09 07:47:11;;;;;;;;;;;;;;;;;;5073808;28;19916;-69
2022/07/09 07:49:37;;;;;;;;;;;;;;;;;;5073285;28;19909;-67
2022/07/09 07:52:03;;;;;;;;;;;;;;;;;;5073799;28;20315;-69
2022/07/09 07:54:29;;;;;;;;;;;;;;;;;;5073470;28;19912;-69
2022/07/09 07:56:55;;;;;;;;;;;;;;;;;;5073205;28;19974;-68
2022/07/09 07:59:21;;;;;;;;;;;;;;;;;;5073717;28;20365;-69
2022/07/09 08:01:47;;;;;;;;;;;;;;;;;;5073095;28;20365;-68
2022/07/09 08:04:13;;;;;;;;;;;;;;;;;;5073402;28;19916;-68
2022/07/09 08:06:39;;;;;;;;;;;;;;;;;;5073005;28;19916;-69
2022/07/09 08:09:05;;;;;;;;;;;;;;;;;;5073079;28;19995;-68
2022/07/09 08:11:31;;;;;;;;;;;;;;;;;;5073330;28;19908;-69
2022/07/09 08:13:57;;;;;;;;;;;;;;;;;;5073068;28;20375;-69
2022/07/09 08:16:23;;;;;;;;;;;;;;;;;;5075044;28;20410;-69
2022/07/09 08:18:49;;;;;;;;;;;;;;;;;;5076618;28;19960;-69
2022/07/09 08:21:15;;;;;;;;;;;;;;;;;;5076808;28;20030;-69
2022/07/09 08:23:56;;;;;;;;;;;;;;;;;;5076809;28;19909;-69
2022/07/09 08:26:22;;;;;;;;;;;;;;;;;;5076880;28;19948;-72
2022/07/09 08:28:48;;;;;;;;;;;;;;;;;;5076667;28;20280;-72
2022/07/09 08:31:14;;;;;;;;;;;;;;;;;;5076192;28;19964;-73
2022/07/09 08:33:40;;;;;;;;;;;;;;;;;;5076911;28;19954;-72
2022/07/09 08:36:06;;;;;;;;;;;;;;;;;;5076331;28;19908;-70
2022/07/09 08:38:32;;;;;;;;;;;;;;;;;;5076845;28;19963;-72
2022/07/09 08:40:58;;;;;;;;;;;;;;;;;;5076369;28;19912;-68
2022/07/09 08:43:24;;;;;;;;;;;;;;;;;;5076190;28;20333;-71
2022/07/09 08:45:50;;;;;;;;;;;;;;;;;;5076804;28;19944;-77
2022/07/09 08:48:15;;;;;;;;;;;;;;;;;;5076574;28;20356;-72
2022/07/09 08:50:41;;;;;;;;;;;;;;;;;;5076081;28;19909;-72
2022/07/09 08:53:07;;;;;;;;;;;;;;;;;;5076296;28;19908;-69
2022/07/09 08:55:34;;;;;;;;;;;;;;;;;;5075857;28;20382;-73
2022/07/09 08:58:00;;;;;;;;;;;;;;;;;;5076027;28;19939;-70
2022/07/09 09:00:26;;;;;;;;;;;;;;;;;;5075892;28;20368;-70
2022/07/09 09:02:52;;;;;;;;;;;;;;;;;;5076039;28;19919;-74
2022/07/09 09:05:18;;;;;;;;;;;;;;;;;;5075790;28;19909;-76
2022/07/09 09:07:44;;;;;;;;;;;;;;;;;;5057802;28;19951;-72
2022/07/09 09:10:10;;;;;;;;;;;;;;;;;;5075543;28;19954;-71
2022/07/09 09:12:36;;;;;;;;;;;;;;;;;;5076201;28;19908;-72
2022/07/09 09:15:01;;;;;;;;;;;;;;;;;;5075891;28;19957;-74
2022/07/09 09:17:27;;;;;;;;;;;;;;;;;;5075548;28;19954;-76
2022/07/09 09:19:53;;;;;;;;;;;;;;;;;;5057549;28;19909;-75
2022/07/09 09:22:19;;;;;;;;;;;;;;;;;;5075428;28;19923;-74
2022/07/09 09:24:45;;;;;;;;;;;;;;;;;;5075413;28;19915;-73
2022/07/09 09:27:14;;;;;;;;;;;;;;;;;;5074258;28;20347;-73
2022/07/09 09:29:40;;;;;;;;;;;;;;;;;;5075644;28;19914;-75
2022/07/09 09:32:06;;;;;;;;;;;;;;;;;;5075628;28;19999;-73
2022/07/09 09:34:32;;;;;;;;;;;;;;;;;;5075228;28;19958;-77
2022/07/09 09:36:59;;;;;;;;;;;;;;;;;;5075110;28;19909;-73
2022/07/09 09:39:25;;;;;;;;;;;;;;;;;;5075699;28;19909;-72
2022/07/09 09:41:51;;;;;;;;;;;;;;;;;;5074997;28;20334;-72
2022/07/09 09:44:17;;;;;;;;;;;;;;;;;;5075047;28;20403;-74
2022/07/09 09:46:43;;;;;;;;;;;;;;;;;;5075242;28;19990;-73
2022/07/09 09:49:09;;;;;;;;;;;;;;;;;;5075460;28;19912;-70
2022/07/09 09:51:35;;;;;;;;;;;;;;;;;;5074878;28;19991;-75
2022/07/09 09:54:01;;;;;;;;;;;;;;;;;;5074997;28;19909;-68
2022/07/09 09:56:27;;;;;;;;;;;;;;;;;;5075058;28;20262;-70
2022/07/09 09:58:53;;;;;;;;;;;;;;;;;;5075268;28;19908;-69
2022/07/09 10:01:19;;;;;;;;;;;;;;;;;;5074635;28;19924;-72
2022/07/09 10:03:45;;;;;;;;;;;;;;;;;;5056651;28;19909;-72
2022/07/09 10:06:11;;;;;;;;;;;;;;;;;;5074577;28;20441;-72
2022/07/09 10:08:36;;;;;;;;;;;;;;;;;;5074553;28;19912;-69
2022/07/09 10:11:04;;;;;;;;;;;;;;;;;;5074525;28;20023;-70
2022/07/09 10:13:30;;;;;;;;;;;;;;;;;;5056494;28;19952;-71
2022/07/09 10:15:56;;;;;;;;;;;;;;;;;;5074658;28;19915;-69
2022/07/09 10:18:21;;;;;;;;;;;;;;;;;;5074373;28;20350;-70
2022/07/09 10:20:49;;;;;;;;;;;;;;;;;;5074311;28;19915;-70
2022/07/09 10:23:15;;;;;;;;;;;;;;;;;;5074587;28;19954;-70
2022/07/09 10:25:41;;;;;;;;;;;;;;;;;;5074278;28;19908;-71
2022/07/09 10:28:07;;;;;;;;;;;;;;;;;;5074388;28;20278;-70
2022/07/09 10:30:33;;;;;;;;;;;;;;;;;;5073901;28;19927;-71
2022/07/09 10:32:59;;;;;;;;;;;;;;;;;;5074386;28;19920;-69
2022/07/09 10:35:24;;;;;;;;;;;;;;;;;;5074030;28;19963;-72
2022/07/09 10:37:50;;;;;;;;;;;;;;;;;;5073963;28;19954;-71
2022/07/09 10:40:16;;;;;;;;;;;;;;;;;;5074131;28;19955;-70
2022/07/09 10:54:48;;;;;;;2.20;1.80;;;;;;;;;;5132015;27;20398;-70
2022/07/09 10:57:15;;;;;;;4.60;1.80;;;;;;;;;;5111424;28;20069;-69
2022/07/09 10:59:47;;;;;;;6.13;2.17;;;;;;;;;;5111397;28;20078;-71
2022/07/09 11:02:22;;;;;;;3.67;2.08;;;;;;;;;;5110701;28;20514;-69
2022/07/09 11:04:52;;;;;;;3.45;1.85;;;;;;;;;;5110697;28;20016;-68
2022/07/09 11:07:24;;;;;;;2.88;2.17;;;;;;;;;;5110682;28;20484;-70
2022/07/09 11:09:51;;;;;;;3.65;2.00;;;;;;;;;;5110539;28;20510;-70
2022/07/09 11:12:21;;;;;;;4.28;2.40;;;;;;;;;;5110531;28;20024;-70
2022/07/09 11:14:48;;;;;;;5.05;2.33;;;;;;;;;;5110493;28;20131;-72
2022/07/09 11:17:21;;;;;;;2.90;2.15;;;;;;;;;;5110488;28;20056;-68
2022/07/09 11:19:49;;;;;;;3.58;1.88;;;;;;;;;;5091905;28;20043;-68
2022/07/09 11:22:18;;;;;;;3.42;1.83;;;;;;;;;;5110338;28;20442;-71
2022/07/09 11:24:44;;;;;;;4.35;1.80;;;;;;;;;;5110652;28;20423;-69
2022/07/09 11:27:10;;;;;;;3.00;1.95;;;;;;;;;;5110592;28;20019;-71
2022/07/09 11:29:36;;;;;;;2.05;1.73;;;;;;;;;;5091993;28;20024;-69
2022/07/09 11:32:03;;;;;;;3.38;1.95;;;;;;;;;;5110235;28;20024;-70
2022/07/09 11:34:29;;;;;;;4.00;1.98;;;;;;;;;;5110126;28;20031;-68
2022/07/09 11:36:56;;;;;;;2.25;1.60;;;;;;;;;;5110392;28;20050;-71
2022/07/09 11:39:29;;;;;;;2.92;1.70;;;;;;;;;;5091798;28;20027;-69
2022/07/09 11:41:56;;;;;;;2.75;1.80;;;;;;;;;;5109902;28;20028;-72
2022/07/09 11:44:29;;;;;;;3.33;1.90;;;;;;;;;;5109662;28;20028;-70
2022/07/09 11:47:03;;;;;;;3.15;1.67;;;;;;;;;;5089586;28;20063;-70
2022/07/09 11:49:35;;;;;;;2.67;1.75;;;;;;;;;;5090034;28;20024;-68
2022/07/09 11:52:01;;;;;;;1.70;1.45;;;;;;;;;;5090002;28;20052;-69
2022/07/09 11:54:28;;;;;;;1.73;1.50;;;;;;;;;;5063820;28;20041;-68
2022/07/09 11:56:54;;;;;;;4.63;2.05;;;;;;;;;;5055889;28;20055;-70
2022/07/09 11:59:34;;;;;;;2.55;1.70;;;;;;;;;;5055837;28;20394;-70
2022/07/09 12:02:02;;;;;;;2.67;1.90;;;;;;;;;;5056338;28;20540;-69
2022/07/09 12:04:31;;;;;;;3.10;1.70;;;;;;;;;;5056050;28;20044;-70
2022/07/09 12:06:58;;;;;;;3.40;1.67;;;;;;;;;;5055730;28;20021;-71
2022/07/09 12:09:28;;;;;;;1.98;1.48;;;;;;;;;;5056010;28;20025;-71
2022/07/09 12:11:54;;;;;;;1.85;1.60;;;;;;;;;;5055654;28;20501;-72
2022/07/09 12:14:20;;;;;;;2.42;1.60;;;;;;;;;;5055828;28;20028;-72
2022/07/09 12:16:46;;;;;;;2.30;1.50;;;;;;;;;;5055572;28;20025;-69
2022/07/09 12:19:12;;;;;;;2.42;1.58;;;;;;;;;;5055460;28;20555;-69
2022/07/09 12:21:38;;;;;;;2.70;1.67;;;;;;;;;;5055426;28;20025;-69
2022/07/09 12:24:04;;;;;;;2.75;1.80;;;;;;;;;;5055601;28;20051;-69
2022/07/09 12:26:30;;;;;;;1.83;1.50;;;;;;;;;;5055380;28;20052;-70
2022/07/09 12:28:57;;;;;;;3.25;1.67;;;;;;;;;;5055318;28;20488;-70
2022/07/09 12:31:23;;;;;;;2.50;1.55;;;;;;;;;;5055236;28;20364;-70
2022/07/09 12:33:49;;;;;;;4.03;1.90;;;;;;;;;;5055174;28;20021;-71
2022/07/09 12:36:16;;;;;;;3.75;1.73;;;;;;;;;;5055469;28;20033;-69
2022/07/09 12:38:42;;;;;;;2.22;1.70;;;;;;;;;;5055181;28;20082;-70
2022/07/09 12:41:08;;;;;;;2.70;1.60;;;;;;;;;;5055645;28;20029;-69
2022/07/09 12:43:34;;;;;;;5.10;2.15;;;;;;;;;;5055027;28;20029;-71
2022/07/09 12:46:00;;;;;;;5.82;1.90;;;;;;;;;;5055220;28;20470;-70
2022/07/09 12:48:26;;;;;;;4.13;2.00;;;;;;;;;;5055484;28;20025;-70
2022/07/09 12:50:52;;;;;;;3.20;1.52;;;;;;;;;;5055430;28;20021;-70
2022/07/09 12:53:18;;;;;;;3.03;1.30;;;;;;;;;;5054831;28;20074;-71
2022/07/09 12:55:46;;;;;;;1.80;1.70;;;;;;;;;;5054861;28;20473;-69
2022/07/09 12:58:12;;;;;;;1.70;1.52;;;;;;;;;;5054835;28;20021;-70
2022/07/09 13:00:38;;;;;;;7.60;1.80;;;;;;;;;;5054986;28;20029;-69
2022/07/09 13:03:05;;;;;;;4.00;1.90;;;;;;;;;;5054592;28;20048;-71
2022/07/09 13:05:31;;;;;;;3.90;1.90;;;;;;;;;;5053907;28;20056;-72
2022/07/09 13:07:57;;;;;;;1.95;1.67;;;;;;;;;;5054360;28;20021;-70
2022/07/09 13:10:23;;;;;;;3.35;1.90;;;;;;;;;;5054520;28;20057;-68
2022/07/09 13:12:49;;;;;;;3.58;2.03;;;;;;;;;;5054488;28;20056;-69
2022/07/09 13:15:20;;;;;;;3.00;1.75;;;;;;;;;;5054480;28;20059;-70
2022/07/09 13:17:49;;;;;;;2.83;2.00;;;;;;;;;;5054731;28;20051;-68
2022/07/09 13:20:16;;;;;;;2.87;1.70;;;;;;;;;;5054356;28;20033;-69
2022/07/09 13:22:42;;;;;;;4.57;2.25;;;;;;;;;;5054571;28;20025;-71
2022/07/09 13:25:08;;;;;;;2.45;2.08;;;;;;;;;;5054262;28;20017;-70
2022/07/09 13:27:34;;;;;;;1.90;1.67;;;;;;;;;;5054521;28;20028;-69
2022/07/09 13:30:00;;;;;;;3.38;2.00;;;;;;;;;;5054209;28;20048;-70
2022/07/09 13:32:27;;;;;;;3.40;2.10;;;;;;;;;;5054356;28;20028;-70
2022/07/09 13:34:53;;;;;;;2.88;2.28;;;;;;;;;;5054057;28;20029;-68
2022/07/09 13:37:20;;;;;;;4.80;2.38;;;;;;;;;;5054051;28;20493;-69
2022/07/09 13:39:46;;;;;;;2.97;2.10;;;;;;;;;;5053947;28;20032;-67
2022/07/09 13:42:12;;;;;;;3.15;2.30;;;;;;;;;;5054111;28;20033;-69
2022/07/09 13:44:38;;;;;;;1.83;1.73;;;;;;;;;;5036203;28;20051;-70
2022/07/09 13:47:04;;;;;;;3.55;1.95;;;;;;;;;;5054119;28;20094;-69
2022/07/09 13:49:30;;;;;;;4.10;2.40;;;;;;;;;;5054327;28;20052;-69
2022/07/09 13:52:00;;;;;;;3.55;2.10;;;;;;;;;;5053751;28;20091;-69
2022/07/09 13:54:26;;;;;;;2.60;1.90;;;;;;;;;;5053305;28;20084;-70
2022/07/09 13:56:52;;;;;;;3.30;2.38;;;;;;;;;;5053651;28;20031;-70
2022/07/09 13:59:18;;;;;;;2.53;2.10;;;;;;;;;;5053608;28;20021;-71
2022/07/09 14:01:44;;;;;;;3.42;2.25;;;;;;;;;;5053579;28;20111;-71
2022/07/09 14:04:10;;;;;;;6.47;2.42;;;;;;;;;;5053737;28;20057;-69
2022/07/09 14:06:37;;;;;;;4.63;2.33;;;;;;;;;;5053771;28;20052;-69
2022/07/09 14:09:03;;;;;;;5.35;2.47;;;;;;;;;;5053725;28;20092;-70
2022/07/09 14:11:29;;;;;;;4.50;2.25;;;;;;;;;;5053460;28;20068;-71
2022/07/09 14:13:56;;;;;;;4.78;2.05;;;;;;;;;;5053379;28;20410;-68
2022/07/09 14:16:22;;;;;;;5.53;2.15;;;;;;;;;;5053357;28;20029;-69
2022/07/09 14:18:48;;;;;;;2.95;1.92;;;;;;;;;;5053649;28;20036;-70
2022/07/09 14:21:14;;;;;;;3.25;1.67;;;;;;;;;;5053264;28;20029;-71
2022/07/09 14:23:41;;;;;;;3.30;2.15;;;;;;;;;;5053175;28;20394;-71
2022/07/09 14:26:07;;;;;;;2.63;1.70;;;;;;;;;;5053226;28;20036;-70
2022/07/09 14:28:33;;;;;;;3.15;1.63;;;;;;;;;;5053436;28;20024;-71
2022/07/09 14:30:59;;;;;;;4.45;1.70;;;;;;;;;;5053191;28;20025;-69
2022/07/09 14:33:25;;;;;;;3.95;1.83;;;;;;;;;;5053422;28;20029;-70
2022/07/09 14:35:51;;;;;;;4.28;2.10;;;;;;;;;;5053375;28;20029;-69
2022/07/09 14:38:17;;;;;;;4.30;2.40;;;;;;;;;;5035244;28;20440;-69
2022/07/09 14:40:43;;;;;;;2.75;2.10;;;;;;;;;;5053069;28;20025;-71
2022/07/09 14:43:09;;;;;;;2.97;2.00;;;;;;;;;;5053233;28;20029;-69
2022/07/09 14:45:35;;;;;;;5.18;2.80;;;;;;;;;;5052947;28;20475;-69
2022/07/09 14:48:03;;;;;;;3.85;2.70;;;;;;;;;;5053513;28;20017;-72
2022/07/09 14:50:29;;;;;;;5.88;2.45;;;;;;;;;;5053041;28;20017;-71
2022/07/09 14:52:56;;;;;;;6.65;2.10;;;;;;;;;;5052786;28;20064;-69
2022/07/09 14:55:22;;;;;;;3.97;2.10;;;;;;;;;;5052947;28;20038;-69
2022/07/09 14:57:48;;;;;;;3.53;2.67;;;;;;;;;;5053192;28;20017;-70
2022/07/09 15:00:15;;;;;;;6.05;2.70;;;;;;;;;;5052889;28;20108;-70
2022/07/09 15:02:41;;;;;;;4.32;2.90;;;;;;;;;;5052735;28;20482;-71
2022/07/09 15:05:08;;;;;;;7.35;2.78;;;;;;;;;;5052814;28;20025;-68
2022/07/09 15:07:35;;;;;;;4.93;2.40;;;;;;;;;;5053329;28;20513;-70
2022/07/09 15:10:01;;;;;;;4.40;2.42;;;;;;;;;;5034968;28;20078;-70
2022/07/09 15:12:27;;;;;;;3.63;2.67;;;;;;;;;;5052780;28;20028;-70
2022/07/09 15:14:53;;;;;;;4.75;2.72;;;;;;;;;;5053025;28;20033;-70
2022/07/09 15:17:19;;;;;;;9.38;2.70;;;;;;;;;;5052751;28;20441;-72
2022/07/09 15:19:45;;;;;;;5.88;2.63;;;;;;;;;;5052924;28;20082;-70
2022/07/09 15:22:11;;;;;;;3.80;2.30;;;;;;;;;;5052571;28;20025;-70
2022/07/09 15:24:37;;;;;;;5.85;2.30;;;;;;;;;;5052904;28;20044;-70
2022/07/09 15:27:03;;;;;;;5.97;2.40;;;;;;;;;;5052635;28;20032;-71
2022/07/09 15:29:29;;;;;;;4.70;2.45;;;;;;;;;;5054333;28;20029;-70
2022/07/09 15:31:55;;;;;;;4.22;2.17;;;;;;;;;;5056343;28;20059;-70
2022/07/09 15:34:21;;;;;;;4.82;2.20;;;;;;;;;;5056292;28;20475;-70
2022/07/09 15:36:48;;;;;;;4.82;2.70;;;;;;;;;;5056305;28;20032;-71
2022/07/09 15:39:14;;;;;;;6.20;2.97;;;;;;;;;;5056820;28;20017;-69
2022/07/09 15:41:40;;;;;;;4.93;2.20;;;;;;;;;;5056740;28;20486;-70
2022/07/09 15:44:06;;;;;;;4.35;2.53;;;;;;;;;;5056074;28;20021;-68
2022/07/09 15:46:33;;;;;;;3.72;2.17;;;;;;;;;;5056057;28;20079;-70
2022/07/09 15:48:59;;;;;;;4.63;2.30;;;;;;;;;;5056600;28;20020;-68
2022/07/09 15:51:25;;;;;;;6.07;2.60;;;;;;;;;;5056277;28;20025;-69
2022/07/09 15:53:51;;;;;;;3.35;2.28;;;;;;;;;;5055776;28;20049;-69
2022/07/09 15:56:17;;;;;;;4.18;2.22;;;;;;;;;;5055830;28;20112;-70
2022/07/09 15:58:44;;;;;;;6.82;3.10;;;;;;;;;;5038010;28;20393;-70
2022/07/09 16:01:10;;;;;;;4.13;2.40;;;;;;;;;;5055814;28;20033;-69
2022/07/09 16:03:37;;;;;;;3.03;2.30;;;;;;;;;;5055812;28;20035;-69
2022/07/09 16:06:03;;;;;;;4.38;2.20;;;;;;;;;;5037812;28;20025;-70
2022/07/09 16:08:29;;;;;;;5.45;2.55;;;;;;;;;;5055688;28;20055;-70
2022/07/09 16:10:55;;;;;;;4.53;2.40;;;;;;;;;;5055936;28;20475;-71